South Fork, PA (15956)

10:56 PM EDT on September 01, 2015 (GMT -0400)
Jackson Twp - Swigle Mountain Road | | Change Station
CLOSE
Current Station
Personal Weather Station
Location: Mineral Point, PA
Elevation: 2277 ft
Nearby Weather Stations

Elev 2277 ft 40.40 °N, 78.80 °W | Updated 6 seconds ago

Clear
Clear
69.6 °F
Feels Like 69.6 °F
N
0.0
Wind Variable Wind from NNW
Gusts 0.0 mph

Today
High -- | Low -- °F
--% Chance of Precip.
Yesterday
High -- | Low -- °F
Precip. -- in
6:42 AM 7:47 PM
Waning Gibbous, 84% visible
Pressure 30.12 in
Visibility 10.0 miles
Clouds Scattered Clouds 5000 ft
Dew Point 66 °F
Humidity 88%
Rainfall 0.00 in
Snow Depth Not available.
UV 0 out of 12
Pollen 10.20 out of 12
Air Quality Not available.
Flu Activity Not available.
METAR KJST 020254Z AUTO 00000KT 10SM SCT050 23/16 A3017 RMK AO2 SLP200 T02280161 51011
Pressure 30.12 in
Visibility 10.0 miles
Clouds Scattered Clouds 5000 ft
Dew Point 66 °F
Humidity 88%
Rainfall 0.00 in
Snow Depth Not available.
UV 0 out of 12
Pollen 10.20 out of 12
Air Quality Not available.
Flu Activity Not available.
METAR KJST 020254Z AUTO 00000KT 10SM SCT050 23/16 A3017 RMK AO2 SLP200 T02280161 51011

10-Day Weather Forecast

×

Almanac

Astronomy

Sep. 01, 2015 Rise Set
Actual Time
Civil Twilight
Nautical Twilight
Astronomical Twilight
Moon
Length of Visible Light
Length of Day
Tomorrow will be .
, % of the Moon is Illuminated

Today's Extremes

State Highs State Lows

Community

WunderPhotos

Upload Photos

1,851,682 photos uploaded!

WunderBlogs® & News

Nearby

Air Quality

  Air Quality AQ Index Pollutant
Not available.

Snow Depth

Station Depth Elevation

Earthquake Activity

City Distance Mag. Time & Date
Minimum magnitude displayed is 2.5.

Coastal Water Temperatures

Place Temperature

Stations

Nearby Weather Stations

Station Location Temp. Windchill Dew Point Humidity Wind Precip. Elev Updated Type